createdAt,value
2023-02-13T00:02:14.448Z,2.50
2023-02-13T00:04:43.004Z,2.58
2023-02-13T00:07:14.094Z,2.10
2023-02-13T00:09:41.340Z,2.85
2023-02-13T00:12:09.285Z,2.60
2023-02-13T00:14:36.996Z,2.35
2023-02-13T00:17:04.785Z,2.25
2023-02-13T00:19:32.063Z,2.50
2023-02-13T00:21:59.900Z,2.10
2023-02-13T00:24:27.485Z,2.88
2023-02-13T00:26:54.723Z,2.72
2023-02-13T00:29:21.916Z,2.25
2023-02-13T00:31:49.214Z,3.15
2023-02-13T00:34:19.536Z,2.85
2023-02-13T00:36:46.765Z,2.90
2023-02-13T00:39:14.043Z,2.92
2023-02-13T00:41:41.284Z,3.70
2023-02-13T00:44:09.778Z,4.47
2023-02-13T00:46:38.880Z,3.10
2023-02-13T00:49:06.509Z,3.10
2023-02-13T00:51:34.036Z,2.90
2023-02-13T00:54:01.503Z,5.03
2023-02-13T00:56:28.710Z,2.75
2023-02-13T00:58:55.934Z,2.22
2023-02-13T01:01:23.426Z,2.60
2023-02-13T01:03:50.737Z,2.60
2023-02-13T01:06:17.986Z,3.35
2023-02-13T01:08:45.301Z,2.63
2023-02-13T01:11:12.493Z,3.05
2023-02-13T01:13:39.828Z,2.53
2023-02-13T01:16:07.440Z,2.55
2023-02-13T01:18:34.711Z,2.65
2023-02-13T01:21:04.540Z,3.63
2023-02-13T01:23:32.724Z,2.60
2023-02-13T01:26:00.438Z,3.10
2023-02-13T01:28:27.765Z,2.63
2023-02-13T01:30:58.218Z,2.78
2023-02-13T01:33:27.585Z,7.47
2023-02-13T01:35:55.019Z,8.45
2023-02-13T01:38:22.746Z,2.90
2023-02-13T01:40:51.061Z,2.38
2023-02-13T01:43:18.918Z,2.70
2023-02-13T01:45:47.818Z,2.33
2023-02-13T01:48:15.185Z,2.92
2023-02-13T01:50:46.358Z,2.63
2023-02-13T01:53:15.689Z,4.22
2023-02-13T01:55:47.092Z,3.13
2023-02-13T01:58:18.066Z,3.00
2023-02-13T02:00:49.844Z,3.67
2023-02-13T02:03:20.797Z,2.83
2023-02-13T02:05:48.148Z,3.00
2023-02-13T02:08:16.913Z,2.80
2023-02-13T02:10:44.428Z,2.92
2023-02-13T02:13:21.045Z,3.28
2023-02-13T02:15:49.130Z,2.28
2023-02-13T02:18:17.507Z,2.50
2023-02-13T02:20:50.530Z,2.38
2023-02-13T02:23:30.674Z,2.72
2023-02-13T02:25:57.913Z,2.53
2023-02-13T02:28:43.286Z,2.63
2023-02-13T02:31:10.605Z,2.00
2023-02-13T02:33:44.190Z,2.55
2023-02-13T02:39:17.402Z,2.10
2023-02-13T02:42:06.031Z,1.98
2023-02-13T02:44:44.557Z,2.03
2023-02-13T02:48:06.258Z,2.08
2023-02-13T02:50:40.826Z,2.15
2023-02-13T02:53:07.991Z,1.73
2023-02-13T02:55:42.873Z,1.80
2023-02-13T02:58:32.286Z,1.50
2023-02-13T03:01:19.692Z,1.83
2023-02-13T03:04:06.816Z,1.80
2023-02-13T03:06:45.401Z,1.45
2023-02-13T03:09:33.296Z,1.90
2023-02-13T03:12:20.213Z,1.80
2023-02-13T03:14:47.710Z,2.05
2023-02-13T03:17:35.522Z,2.58
2023-02-13T03:20:46.651Z,2.22
2023-02-13T03:23:37.026Z,1.98
2023-02-13T03:26:16.756Z,2.25
2023-02-13T03:29:09.409Z,2.25
2023-02-13T03:31:36.639Z,2.30
2023-02-13T03:34:10.098Z,5.03
2023-02-13T03:39:24.946Z,2.38
2023-02-13T03:41:56.743Z,2.63
2023-02-13T03:44:26.706Z,1.83
2023-02-13T03:46:56.581Z,2.00
2023-02-13T03:49:44.807Z,2.10
2023-02-13T03:52:15.440Z,1.98
2023-02-13T03:55:04.368Z,2.20
2023-02-13T03:57:52.918Z,2.58
2023-02-13T04:00:21.698Z,2.97
2023-02-13T04:02:55.753Z,2.10
2023-02-13T04:05:25.511Z,1.77
2023-02-13T04:07:53.009Z,2.00
2023-02-13T04:10:20.566Z,2.10
2023-02-13T04:12:47.766Z,2.00
2023-02-13T04:15:33.705Z,1.75
2023-02-13T04:18:20.824Z,1.85
2023-02-13T04:20:51.087Z,1.55
2023-02-13T04:23:18.358Z,1.90
2023-02-13T04:25:47.778Z,1.80
2023-02-13T04:28:15.589Z,1.85
2023-02-13T04:30:43.073Z,1.60
2023-02-13T04:33:10.316Z,1.60
2023-02-13T04:35:37.559Z,1.67
2023-02-13T04:38:05.067Z,1.67
2023-02-13T04:40:32.264Z,1.75
2023-02-13T04:42:59.761Z,1.73
2023-02-13T04:45:27.064Z,1.50
2023-02-13T04:47:55.284Z,1.73
2023-02-13T04:50:22.881Z,4.72
2023-02-13T04:52:53.559Z,3.08
2023-02-13T04:55:20.807Z,1.95
2023-02-13T04:57:48.330Z,1.95
2023-02-13T05:00:15.698Z,2.05
2023-02-13T05:02:42.817Z,2.85
2023-02-13T05:05:10.011Z,2.22
2023-02-13T05:07:37.464Z,2.70
2023-02-13T05:10:05.286Z,4.82
2023-02-13T05:12:32.548Z,3.70
2023-02-13T05:14:59.963Z,3.67
2023-02-13T05:17:28.329Z,5.88
2023-02-13T05:19:55.680Z,4.05
2023-02-13T05:22:41.883Z,5.57
2023-02-13T05:25:09.096Z,4.00
2023-02-13T05:27:36.287Z,4.13
2023-02-13T05:30:03.575Z,6.13
2023-02-13T05:32:30.828Z,4.30
2023-02-13T05:34:58.057Z,5.05
2023-02-13T05:37:28.114Z,11.75
2023-02-13T05:39:55.273Z,5.60
2023-02-13T05:42:22.666Z,31.45
2023-02-13T05:44:50.011Z,7.60
2023-02-13T05:47:17.317Z,5.82
2023-02-13T05:49:44.520Z,17.92
2023-02-13T05:52:11.826Z,10.68
2023-02-13T05:54:39.521Z,7.72
2023-02-13T05:57:06.679Z,31.50
2023-02-13T05:59:33.955Z,26.92
2023-02-13T06:02:01.689Z,21.00
2023-02-13T06:04:28.876Z,17.08
2023-02-13T06:06:56.175Z,9.70
2023-02-13T06:09:23.372Z,8.10
2023-02-13T06:11:50.662Z,10.82
2023-02-13T06:14:18.141Z,10.23
2023-02-13T06:16:45.410Z,7.72
2023-02-13T06:19:12.575Z,7.72
2023-02-13T06:21:40.070Z,5.57
2023-02-13T06:24:08.207Z,7.03
2023-02-13T06:26:35.822Z,11.05
2023-02-13T06:29:05.162Z,8.05
2023-02-13T06:31:33.047Z,5.70
2023-02-13T06:34:00.299Z,3.85
2023-02-13T06:36:27.640Z,4.35
2023-02-13T06:38:55.576Z,8.48
2023-02-13T06:41:22.747Z,8.45
2023-02-13T06:43:49.999Z,16.75
2023-02-13T06:46:17.514Z,5.57
2023-02-13T06:48:44.926Z,8.38
2023-02-13T06:51:12.191Z,9.90
2023-02-13T06:53:39.750Z,3.95
2023-02-13T06:56:07.180Z,4.90
2023-02-13T06:58:34.480Z,10.77
2023-02-13T07:01:01.837Z,5.75
2023-02-13T07:03:29.176Z,5.68
2023-02-13T07:05:56.701Z,5.82
2023-02-13T07:08:24.138Z,14.43
2023-02-13T07:10:51.436Z,14.95
2023-02-13T07:13:18.676Z,8.77
2023-02-13T07:15:46.184Z,20.88
2023-02-13T07:18:13.706Z,16.73
2023-02-13T07:20:40.950Z,9.30
2023-02-13T07:23:08.427Z,5.68
2023-02-13T07:25:36.070Z,5.68
2023-02-13T07:28:04.404Z,25.73
2023-02-13T07:30:32.371Z,31.05
2023-02-13T07:33:03.073Z,10.45
2023-02-13T07:35:30.319Z,30.08
2023-02-13T07:37:57.646Z,7.78
2023-02-13T07:40:24.986Z,22.00
2023-02-13T07:42:52.302Z,18.67
2023-02-13T07:45:19.649Z,17.70
2023-02-13T07:47:47.011Z,47.20
2023-02-13T07:50:14.505Z,20.60
2023-02-13T07:52:41.818Z,24.70
2023-02-13T07:55:11.630Z,10.70
2023-02-13T07:57:38.881Z,11.15
2023-02-13T08:00:07.684Z,31.27
2023-02-13T08:02:34.960Z,6.00
2023-02-13T08:05:03.097Z,4.32
2023-02-13T08:07:30.458Z,6.90
2023-02-13T08:10:16.255Z,24.95
2023-02-13T08:12:43.624Z,8.15
2023-02-13T08:15:12.997Z,8.30
2023-02-13T08:17:40.494Z,3.15
2023-02-13T08:20:11.572Z,7.50
2023-02-13T08:22:39.312Z,3.47
2023-02-13T08:25:07.638Z,3.53
2023-02-13T08:27:35.144Z,2.78
2023-02-13T08:30:03.545Z,3.25
2023-02-13T08:32:35.441Z,3.38
2023-02-13T08:35:07.456Z,10.18
2023-02-13T08:37:34.723Z,3.67
2023-02-13T08:40:02.043Z,5.40
2023-02-13T08:42:29.597Z,4.88
2023-02-13T08:44:58.682Z,3.50
2023-02-13T08:47:26.054Z,7.05
2023-02-13T08:49:53.319Z,7.50
2023-02-13T08:52:20.694Z,8.40
2023-02-13T08:54:47.850Z,7.07
2023-02-13T08:57:15.048Z,6.30
2023-02-13T08:59:42.392Z,3.33
2023-02-13T09:02:11.505Z,3.05
2023-02-13T09:04:38.822Z,3.67
2023-02-13T09:07:06.149Z,2.65
2023-02-13T09:09:33.541Z,3.15
2023-02-13T09:12:01.115Z,2.35
2023-02-13T09:14:28.537Z,2.40
2023-02-13T09:16:55.845Z,3.72
2023-02-13T09:19:23.275Z,3.03
2023-02-13T09:21:50.972Z,4.32
2023-02-13T09:24:18.246Z,3.35
2023-02-13T09:26:45.470Z,2.78
2023-02-13T09:29:12.625Z,3.70
2023-02-13T09:31:40.646Z,4.47
2023-02-13T09:34:07.885Z,3.40
2023-02-13T09:36:36.615Z,2.35
2023-02-13T09:39:03.791Z,2.75
2023-02-13T09:41:40.174Z,2.70
2023-02-13T09:44:12.973Z,4.15
2023-02-13T09:46:41.262Z,2.88
2023-02-13T09:49:20.861Z,1.90
2023-02-13T09:51:54.266Z,2.15
2023-02-13T09:54:21.472Z,1.92
2023-02-13T09:57:05.207Z,1.88
2023-02-13T09:59:36.267Z,1.98
2023-02-13T10:02:15.282Z,2.15
2023-02-13T10:05:01.904Z,2.10
2023-02-13T10:07:39.911Z,2.17
2023-02-13T10:10:07.841Z,1.95
2023-02-13T10:12:44.104Z,2.17
2023-02-13T10:15:29.922Z,2.17
2023-02-13T10:18:03.661Z,2.47
2023-02-13T10:20:36.754Z,2.35
2023-02-13T10:23:13.971Z,1.98
2023-02-13T10:25:47.859Z,2.50
2023-02-13T10:28:18.552Z,2.05
2023-02-13T10:30:57.583Z,2.08
2023-02-13T10:33:42.515Z,2.28
2023-02-13T10:36:24.883Z,2.60
2023-02-13T10:38:52.047Z,3.20
2023-02-13T10:41:29.379Z,3.50
2023-02-13T10:44:11.597Z,4.30
2023-02-13T10:46:55.872Z,3.00
2023-02-13T10:49:24.881Z,3.53
2023-02-13T10:52:11.907Z,3.50
2023-02-13T10:54:52.434Z,2.90
2023-02-13T10:57:49.259Z,2.67
2023-02-13T11:00:19.989Z,3.50
2023-02-13T11:02:50.223Z,3.50
2023-02-13T11:05:27.886Z,3.40
2023-02-13T11:07:55.136Z,3.58
2023-02-13T11:10:24.049Z,3.58
2023-02-13T11:12:57.324Z,3.67
2023-02-13T11:15:26.398Z,4.13
2023-02-13T11:17:55.009Z,4.20
2023-02-13T11:20:40.025Z,5.13
2023-02-13T11:23:26.176Z,3.58
2023-02-13T11:26:03.358Z,5.47
2023-02-13T11:28:32.394Z,9.23
2023-02-13T11:31:18.931Z,4.28
2023-02-13T11:33:46.486Z,4.82
2023-02-13T11:36:17.975Z,4.55
2023-02-13T11:38:45.252Z,8.48
2023-02-13T11:41:14.090Z,6.78
2023-02-13T11:43:49.608Z,6.78
2023-02-13T11:46:21.684Z,5.90
2023-02-13T11:49:06.176Z,6.15
2023-02-13T11:51:38.338Z,9.30
2023-02-13T11:54:09.397Z,4.43
2023-02-13T11:57:03.348Z,6.22
2023-02-13T11:59:34.030Z,9.80
2023-02-13T12:02:12.776Z,8.65
2023-02-13T12:04:40.139Z,8.45
2023-02-13T12:07:27.406Z,36.95
2023-02-13T12:10:09.458Z,23.27
2023-02-13T12:12:39.032Z,34.38
2023-02-13T12:15:16.376Z,22.23
2023-02-13T12:17:46.606Z,32.03
2023-02-13T12:20:17.168Z,50.58
2023-02-13T12:23:16.898Z,11.95
2023-02-13T12:26:00.401Z,36.03
2023-02-13T12:28:35.205Z,28.40
2023-02-13T12:31:05.865Z,16.13
2023-02-13T12:33:33.213Z,13.98
2023-02-13T12:36:00.498Z,29.30
2023-02-13T12:38:51.401Z,10.63
2023-02-13T12:41:33.018Z,13.00
2023-02-13T12:44:05.576Z,12.15
2023-02-13T12:46:46.559Z,11.68
2023-02-13T12:49:32.996Z,11.27
2023-02-13T12:52:19.943Z,11.75
2023-02-13T12:54:47.035Z,15.05
2023-02-13T12:57:28.998Z,17.13
2023-02-13T12:59:59.251Z,11.77
2023-02-13T13:02:32.552Z,13.07
2023-02-13T13:05:15.835Z,13.50
2023-02-13T13:07:52.540Z,12.40
2023-02-13T13:10:19.964Z,12.23
2023-02-13T13:12:53.309Z,11.98
2023-02-13T13:15:28.636Z,14.88
2023-02-13T13:18:08.983Z,19.42
2023-02-13T13:20:56.185Z,18.50
2023-02-13T13:23:32.813Z,29.60
2023-02-13T13:26:34.593Z,14.00
2023-02-13T13:29:02.662Z,15.88
2023-02-13T13:31:29.963Z,13.93
2023-02-13T13:34:01.339Z,15.15
2023-02-13T13:36:34.725Z,18.63
2023-02-13T13:39:21.701Z,16.13
2023-02-13T13:41:54.944Z,32.55
2023-02-13T13:44:40.975Z,19.52
2023-02-13T13:47:25.123Z,19.10
2023-02-13T13:49:54.011Z,20.27
2023-02-13T13:52:21.274Z,15.70
2023-02-13T13:54:51.632Z,17.95
2023-02-13T13:57:20.099Z,16.02
2023-02-13T13:59:51.887Z,16.70
2023-02-13T14:02:19.145Z,13.85
2023-02-13T14:05:39.282Z,25.98
2023-02-13T14:08:26.504Z,21.45
2023-02-13T14:11:01.738Z,15.27
2023-02-13T14:13:30.710Z,13.80
2023-02-13T14:15:58.057Z,11.38
2023-02-13T14:18:26.421Z,17.13
2023-02-13T14:20:55.340Z,18.35
2023-02-13T14:23:41.507Z,18.30
2023-02-13T14:26:17.903Z,23.60
2023-02-13T14:28:48.344Z,31.58
2023-02-13T14:31:25.467Z,21.80
2023-02-13T14:34:17.279Z,18.20
2023-02-13T14:36:46.080Z,26.95
2023-02-13T14:39:28.178Z,16.60
2023-02-13T14:41:55.317Z,14.27
2023-02-13T14:44:22.456Z,14.38
2023-02-13T14:46:51.080Z,12.52
2023-02-13T14:49:24.276Z,14.15
2023-02-13T14:51:59.449Z,13.43
2023-02-13T14:54:26.620Z,11.68
2023-02-13T14:56:55.459Z,21.73
2023-02-13T14:59:27.499Z,24.83
2023-02-13T15:01:59.771Z,217.65
2023-02-13T15:04:31.612Z,220.70
2023-02-13T15:07:00.482Z,22.48
2023-02-13T15:09:32.377Z,38.50
2023-02-13T15:12:00.060Z,135.48
2023-02-13T15:14:33.611Z,51.30
2023-02-13T15:17:00.844Z,16.27
2023-02-13T15:19:28.484Z,12.25
2023-02-13T15:21:57.859Z,30.08
2023-02-13T15:24:25.536Z,64.82
2023-02-13T15:26:59.152Z,34.28
2023-02-13T15:29:35.220Z,21.73
2023-02-13T15:32:18.530Z,29.15
2023-02-13T15:34:47.998Z,23.88
2023-02-13T15:37:22.618Z,15.88
2023-02-13T15:39:49.798Z,20.95
2023-02-13T15:42:17.032Z,15.95
2023-02-13T15:44:46.267Z,14.27
2023-02-13T15:47:18.994Z,16.58
2023-02-13T15:49:47.654Z,19.80
2023-02-13T15:52:19.168Z,32.45
2023-02-13T15:54:53.366Z,21.48
2023-02-13T15:57:21.231Z,13.98
2023-02-13T15:59:48.563Z,28.25
2023-02-13T16:02:19.209Z,28.63
2023-02-13T16:04:48.577Z,21.80
2023-02-13T16:07:16.225Z,22.77
2023-02-13T16:09:43.663Z,12.10
2023-02-13T16:12:16.760Z,10.23
2023-02-13T16:15:04.424Z,11.45
2023-02-13T16:17:34.152Z,11.82
2023-02-13T16:20:02.888Z,10.38
2023-02-13T16:22:30.030Z,13.15
2023-02-13T16:25:05.471Z,9.13
2023-02-13T16:27:34.247Z,12.32
2023-02-13T16:30:02.856Z,9.02
2023-02-13T16:32:34.392Z,11.27
2023-02-13T16:35:16.552Z,12.65
2023-02-13T16:37:50.611Z,9.77
2023-02-13T16:40:38.576Z,11.50
2023-02-13T16:43:24.754Z,11.80
2023-02-13T16:45:51.997Z,13.77
2023-02-13T16:48:19.241Z,12.32
2023-02-13T16:50:46.462Z,12.43
2023-02-13T16:53:16.833Z,14.15
2023-02-13T16:55:44.462Z,13.20
2023-02-13T16:58:19.033Z,11.75
2023-02-13T17:00:50.531Z,12.65
2023-02-13T17:03:17.705Z,11.35
2023-02-13T17:05:44.858Z,12.68
2023-02-13T17:08:12.018Z,11.90
2023-02-13T17:10:41.936Z,13.07
2023-02-13T17:13:19.555Z,9.98
2023-02-13T17:15:47.685Z,15.18
2023-02-13T17:18:15.196Z,14.55
2023-02-13T17:20:43.600Z,22.52
2023-02-13T17:23:15.520Z,14.95
2023-02-13T17:25:43.528Z,17.00
2023-02-13T17:28:15.376Z,16.35
2023-02-13T17:30:42.803Z,12.95
2023-02-13T17:33:15.353Z,18.33
2023-02-13T17:35:43.169Z,14.13
2023-02-13T17:38:10.881Z,14.10
2023-02-13T17:40:38.182Z,15.65
2023-02-13T17:43:05.526Z,18.25
2023-02-13T17:45:33.940Z,18.73
2023-02-13T17:48:01.618Z,19.50
2023-02-13T17:50:29.600Z,14.27
2023-02-13T17:52:57.653Z,15.40
2023-02-13T17:55:26.068Z,17.67
2023-02-13T17:57:53.820Z,22.60
2023-02-13T18:00:21.948Z,20.70
2023-02-13T18:02:49.900Z,20.00
2023-02-13T18:05:18.471Z,16.27
2023-02-13T18:07:46.072Z,21.13
2023-02-13T18:10:19.123Z,19.55
2023-02-13T18:12:46.802Z,21.23
2023-02-13T18:15:14.014Z,22.73
2023-02-13T18:17:41.258Z,22.23
2023-02-13T18:20:09.966Z,23.73
2023-02-13T18:22:37.212Z,20.13
2023-02-13T18:25:04.692Z,23.17
2023-02-13T18:27:31.842Z,22.45
2023-02-13T18:29:59.136Z,24.30
2023-02-13T18:32:26.500Z,22.05
2023-02-13T18:34:53.663Z,23.58
2023-02-13T18:37:21.324Z,20.65
2023-02-13T18:39:48.550Z,21.48
2023-02-13T18:42:15.748Z,21.10
2023-02-13T18:44:42.888Z,23.35
2023-02-13T18:47:10.034Z,24.85
2023-02-13T18:49:38.221Z,26.27
2023-02-13T18:52:05.407Z,22.98
2023-02-13T18:54:33.099Z,19.88
2023-02-13T18:57:00.612Z,18.55
2023-02-13T18:59:27.853Z,25.90
2023-02-13T19:01:55.053Z,19.52
2023-02-13T19:04:22.283Z,19.65
2023-02-13T19:06:49.547Z,14.45
2023-02-13T19:09:16.750Z,16.58
2023-02-13T19:11:44.551Z,20.88
2023-02-13T19:14:13.376Z,16.95
2023-02-13T19:16:40.752Z,18.52
2023-02-13T19:19:08.502Z,16.58
2023-02-13T19:21:37.418Z,18.58
2023-02-13T19:24:05.463Z,17.38
2023-02-13T19:26:32.968Z,19.15
2023-02-13T19:29:00.186Z,18.50
2023-02-13T19:31:29.174Z,19.13
2023-02-13T19:33:56.795Z,17.05
2023-02-13T19:36:24.911Z,17.10
2023-02-13T19:38:59.418Z,18.40
2023-02-13T19:41:26.793Z,18.38
2023-02-13T19:43:53.939Z,18.45
2023-02-13T19:46:22.766Z,16.77
2023-02-13T19:48:50.568Z,19.15
2023-02-13T19:51:19.034Z,17.15
2023-02-13T19:53:46.974Z,22.27
2023-02-13T19:56:14.220Z,22.75
2023-02-13T19:58:42.109Z,20.42
2023-02-13T20:01:14.269Z,23.35
2023-02-13T20:03:42.336Z,25.58
2023-02-13T20:06:10.712Z,22.83
2023-02-13T20:08:37.874Z,21.15
2023-02-13T20:11:07.396Z,24.48
2023-02-13T20:13:34.965Z,23.42
2023-02-13T20:16:05.615Z,22.77
2023-02-13T20:18:32.991Z,20.90
2023-02-13T20:21:00.409Z,24.98
2023-02-13T20:23:27.856Z,22.55
2023-02-13T20:25:55.093Z,22.20
2023-02-13T20:28:22.317Z,22.70
2023-02-13T20:30:50.226Z,21.48
2023-02-13T20:33:17.689Z,19.63
2023-02-13T20:35:44.900Z,21.77
2023-02-13T20:38:13.549Z,21.77
2023-02-13T20:40:41.715Z,20.45
2023-02-13T20:43:08.942Z,20.65
2023-02-13T20:45:36.177Z,20.98
2023-02-13T20:48:03.272Z,21.83
2023-02-13T20:50:30.434Z,19.55
2023-02-13T20:52:58.295Z,17.73
2023-02-13T20:55:25.475Z,20.38
2023-02-13T20:57:52.641Z,19.63
2023-02-13T21:00:19.894Z,24.73
2023-02-13T21:02:47.146Z,22.90
2023-02-13T21:05:14.347Z,22.83
2023-02-13T21:07:41.638Z,25.85
2023-02-13T21:10:09.185Z,25.05
2023-02-13T21:12:36.312Z,22.35
2023-02-13T21:15:03.601Z,22.25
2023-02-13T21:17:30.727Z,21.80
2023-02-13T21:19:57.954Z,20.90
2023-02-13T21:22:25.186Z,27.83
2023-02-13T21:24:52.463Z,21.20
2023-02-13T21:27:19.737Z,21.80
2023-02-13T21:29:47.042Z,17.67
2023-02-13T21:32:14.389Z,19.92
2023-02-13T21:34:41.555Z,15.82
2023-02-13T21:37:08.762Z,21.63
2023-02-13T21:39:36.412Z,18.85
2023-02-13T21:42:04.616Z,17.52
2023-02-13T21:44:31.846Z,19.05
2023-02-13T21:46:59.081Z,20.77
2023-02-13T21:49:26.292Z,19.10
2023-02-13T21:51:53.502Z,23.02
2023-02-13T21:54:20.777Z,17.30
2023-02-13T21:56:48.039Z,15.52
2023-02-13T21:59:16.284Z,17.75
2023-02-13T22:01:44.347Z,19.05
2023-02-13T22:04:11.684Z,21.42
2023-02-13T22:06:40.237Z,25.30
2023-02-13T22:09:14.520Z,23.55
2023-02-13T22:11:42.511Z,23.08
2023-02-13T22:14:12.395Z,23.25
2023-02-13T22:16:39.979Z,24.27
2023-02-13T22:19:07.762Z,20.23
2023-02-13T22:21:36.203Z,20.50
2023-02-13T22:24:03.509Z,18.35
2023-02-13T22:26:31.807Z,18.75
2023-02-13T22:29:00.401Z,21.83
2023-02-13T22:31:27.814Z,17.80
2023-02-13T22:34:03.290Z,22.70
2023-02-13T22:36:32.284Z,18.40
2023-02-13T22:38:59.508Z,23.55
2023-02-13T22:41:27.750Z,15.35
2023-02-13T22:43:55.014Z,19.95
2023-02-13T22:46:23.362Z,24.90
2023-02-13T22:48:52.500Z,17.90
2023-02-13T22:51:30.315Z,21.80
2023-02-13T22:53:58.418Z,26.27
2023-02-13T22:56:26.628Z,22.42
2023-02-13T22:58:54.685Z,21.75
2023-02-13T23:01:22.702Z,27.20
2023-02-13T23:03:50.071Z,22.48
2023-02-13T23:06:17.434Z,21.00
2023-02-13T23:08:44.839Z,21.08
2023-02-13T23:11:32.412Z,22.05
2023-02-13T23:13:59.821Z,22.58
2023-02-13T23:16:27.878Z,23.58
2023-02-13T23:18:58.594Z,19.40
2023-02-13T23:21:26.211Z,25.63
2023-02-13T23:23:53.389Z,23.50
2023-02-13T23:26:20.569Z,27.15
2023-02-13T23:28:47.877Z,24.02
2023-02-13T23:31:15.242Z,23.35
2023-02-13T23:33:42.437Z,21.10
2023-02-13T23:36:09.626Z,20.38
2023-02-13T23:38:36.856Z,20.23
2023-02-13T23:41:08.566Z,19.40
2023-02-13T23:43:36.056Z,19.15
2023-02-13T23:46:04.298Z,21.92
2023-02-13T23:48:31.839Z,23.85
2023-02-13T23:50:59.406Z,18.92
2023-02-13T23:53:27.048Z,22.98
2023-02-13T23:55:55.073Z,22.13
2023-02-13T23:58:22.378Z,20.75
